Time;durP1;ratioP1;P1;durP2;ratioP2;P2;SDS_P1;SDS_P2;PMS_P1;PMS_P2;Temp;Humidity;BMP_temperature;BMP_pressure;BME280_temperature;BME280_humidity;BME280_pressure;Samples;Min_cycle;Max_cycle;Signal;HPM_P1;HPM_P2
2022/01/26 00:06:40;;;;;;;54.38;21.75;;;;;;;;;;4993529;28;20429;-51
2022/01/26 00:09:07;;;;;;;54.97;21.88;;;;;;;;;;4992153;28;20188;-51
2022/01/26 00:11:33;;;;;;;54.53;22.58;;;;;;;;;;4993292;28;20681;-50
2022/01/26 00:14:01;;;;;;;53.53;22.08;;;;;;;;;;4994036;28;20215;-52
2022/01/26 00:16:28;;;;;;;52.67;22.60;;;;;;;;;;4995785;28;20199;-52
2022/01/26 00:18:59;;;;;;;62.63;24.35;;;;;;;;;;4995314;28;20188;-52
2022/01/26 00:21:30;;;;;;;50.33;22.83;;;;;;;;;;4996046;28;20188;-52
2022/01/26 00:29:13;;;;;;;54.55;23.55;;;;;;;;;;4973325;28;20292;-52
2022/01/26 00:40:01;;;;;;;57.35;23.60;;;;;;;;;;4994368;28;20192;-52
2022/01/26 00:42:33;;;;;;;57.42;23.08;;;;;;;;;;4994520;28;20196;-52
2022/01/26 00:44:59;;;;;;;51.20;23.58;;;;;;;;;;4994346;28;20179;-52
2022/01/26 00:47:25;;;;;;;52.40;21.83;;;;;;;;;;4994107;28;20255;-52
2022/01/26 00:49:56;;;;;;;60.20;23.73;;;;;;;;;;4994165;28;20173;-52
2022/01/26 00:52:30;;;;;;;53.97;24.60;;;;;;;;;;4992535;28;20459;-52
2022/01/26 00:54:56;;;;;;;54.25;24.35;;;;;;;;;;4994513;28;20181;-52
2022/01/26 00:57:22;;;;;;;58.50;23.30;;;;;;;;;;4993836;28;20223;-52
2022/01/26 00:59:48;;;;;;;63.78;24.88;;;;;;;;;;4991826;28;20596;-52
2022/01/26 01:02:14;;;;;;;61.50;24.77;;;;;;;;;;4993723;28;20208;-52
2022/01/26 01:04:40;;;;;;;58.07;25.50;;;;;;;;;;4993564;28;20401;-52
2022/01/26 01:07:11;;;;;;;67.18;25.77;;;;;;;;;;4993711;28;20418;-52
2022/01/26 01:09:37;;;;;;;58.85;25.48;;;;;;;;;;4993121;28;20540;-52
2022/01/26 01:12:05;;;;;;;56.53;24.50;;;;;;;;;;4993623;28;20210;-52
2022/01/26 01:14:36;;;;;;;61.67;24.55;;;;;;;;;;4993555;28;20399;-52
2022/01/26 01:17:04;;;;;;;62.58;24.23;;;;;;;;;;4993668;28;20620;-52
2022/01/26 01:19:39;;;;;;;56.83;26.10;;;;;;;;;;4993722;28;20169;-52
2022/01/26 01:29:56;;;;;;;67.57;25.40;;;;;;;;;;4992874;28;20183;-52
2022/01/26 01:32:31;;;;;;;61.05;24.08;;;;;;;;;;4974197;28;20241;-52
2022/01/26 01:34:59;;;;;;;59.83;23.90;;;;;;;;;;4973654;28;20169;-52
2022/01/26 01:37:25;;;;;;;74.07;27.80;;;;;;;;;;4973521;28;20189;-52
2022/01/26 01:39:51;;;;;;;54.70;26.10;;;;;;;;;;4973464;28;20169;-52
2022/01/26 01:42:17;;;;;;;61.78;25.55;;;;;;;;;;4973368;28;20432;-52
2022/01/26 01:44:43;;;;;;;64.57;26.40;;;;;;;;;;4973712;28;20169;-52
2022/01/26 01:47:09;;;;;;;65.00;26.47;;;;;;;;;;4974655;28;20511;-52
2022/01/26 01:49:36;;;;;;;72.83;29.13;;;;;;;;;;4974158;28;20408;-52
2022/01/26 01:52:03;;;;;;;75.82;29.17;;;;;;;;;;4974597;28;20420;-52
2022/01/26 01:54:29;;;;;;;68.78;28.25;;;;;;;;;;4974768;28;20166;-52
2022/01/26 01:56:57;;;;;;;69.15;25.05;;;;;;;;;;4974850;28;20252;-52
2022/01/26 01:59:28;;;;;;;75.03;27.35;;;;;;;;;;4974970;28;20158;-52
2022/01/26 02:01:54;;;;;;;59.10;26.83;;;;;;;;;;4992138;28;20286;-52
2022/01/26 02:04:20;;;;;;;69.90;28.33;;;;;;;;;;4993161;28;20173;-52
2022/01/26 02:06:46;;;;;;;66.77;26.20;;;;;;;;;;4993122;28;20187;-52
2022/01/26 02:09:12;;;;;;;64.97;26.47;;;;;;;;;;4993126;28;20474;-52
2022/01/26 02:11:46;;;;;;;62.70;26.60;;;;;;;;;;4992596;28;20462;-52
2022/01/26 02:14:18;;;;;;;69.07;25.48;;;;;;;;;;4993007;28;20182;-52
2022/01/26 02:17:13;;;;;;;76.20;26.60;;;;;;;;;;4993104;28;20188;-52
2022/01/26 02:20:23;;;;;;;65.70;25.92;;;;;;;;;;4993051;28;20164;-52
2022/01/26 02:55:55;;;;;;;72.23;26.83;;;;;;;;;;4975622;28;20186;-52
2022/01/26 03:01:01;;;;;;;66.03;25.63;;;;;;;;;;4979118;28;20189;-52
2022/01/26 03:03:37;;;;;;;74.88;28.10;;;;;;;;;;4993881;28;20939;-52
2022/01/26 03:06:09;;;;;;;59.55;25.63;;;;;;;;;;4994838;28;20255;-52
2022/01/26 03:08:36;;;;;;;71.57;27.00;;;;;;;;;;4994854;28;20220;-51
2022/01/26 03:11:09;;;;;;;69.32;27.20;;;;;;;;;;4994400;28;20647;-52
2022/01/26 03:13:40;;;;;;;57.53;26.85;;;;;;;;;;4994526;28;20637;-51
2022/01/26 03:16:15;;;;;;;81.35;28.42;;;;;;;;;;4992989;28;20697;-52
2022/01/26 03:18:57;;;;;;;78.65;28.13;;;;;;;;;;4994792;28;20188;-52
2022/01/26 03:21:38;;;;;;;68.93;25.42;;;;;;;;;;4994575;28;20181;-52
2022/01/26 03:34:34;;;;;;;68.80;27.08;;;;;;;;;;4994144;28;20458;-52
2022/01/26 03:37:06;;;;;;;64.15;26.02;;;;;;;;;;4993269;28;20287;-52
2022/01/26 03:39:40;;;;;;;74.10;25.17;;;;;;;;;;4993277;28;20173;-52
2022/01/26 03:42:08;;;;;;;75.32;26.52;;;;;;;;;;4993974;28;20725;-52
2022/01/26 03:44:35;;;;;;;78.85;28.13;;;;;;;;;;4994048;28;20175;-52
2022/01/26 03:47:01;;;;;;;67.78;29.73;;;;;;;;;;4993718;28;20180;-52
2022/01/26 03:49:27;;;;;;;66.07;27.65;;;;;;;;;;4993742;28;20256;-52
2022/01/26 03:51:53;;;;;;;67.53;25.90;;;;;;;;;;4993680;28;20635;-52
2022/01/26 03:54:20;;;;;;;70.93;25.63;;;;;;;;;;4993783;28;20165;-52
2022/01/26 03:56:46;;;;;;;81.32;29.83;;;;;;;;;;4993055;28;20224;-52
2022/01/26 03:59:13;;;;;;;83.03;28.98;;;;;;;;;;4993045;28;20176;-52
2022/01/26 04:01:39;;;;;;;80.72;30.08;;;;;;;;;;4992074;28;20196;-53
2022/01/26 04:04:05;;;;;;;86.68;27.42;;;;;;;;;;4993038;28;20181;-52
2022/01/26 04:06:32;;;;;;;88.88;29.05;;;;;;;;;;4993560;28;20169;-52
2022/01/26 04:08:58;;;;;;;74.60;29.30;;;;;;;;;;4993368;28;20632;-51
2022/01/26 04:11:33;;;;;;;71.28;28.35;;;;;;;;;;4993295;28;20215;-52
2022/01/26 04:14:00;;;;;;;75.55;29.17;;;;;;;;;;4993392;28;20197;-53
2022/01/26 04:16:27;;;;;;;76.80;29.08;;;;;;;;;;4993234;28;20287;-52
2022/01/26 04:18:55;;;;;;;74.85;29.38;;;;;;;;;;4993219;28;20755;-52
2022/01/26 04:21:49;;;;;;;66.78;27.10;;;;;;;;;;4993253;28;20204;-52
2022/01/26 04:24:31;;;;;;;66.15;27.73;;;;;;;;;;4993282;28;20226;-52
2022/01/26 04:27:02;;;;;;;72.93;30.77;;;;;;;;;;4993253;28;20169;-52
2022/01/26 04:29:31;;;;;;;66.72;27.00;;;;;;;;;;4993000;28;20187;-52
2022/01/26 04:31:58;;;;;;;73.25;30.52;;;;;;;;;;4992125;28;20197;-52
2022/01/26 04:34:25;;;;;;;66.78;27.25;;;;;;;;;;4992975;28;20255;-52
2022/01/26 04:36:57;;;;;;;79.70;28.38;;;;;;;;;;4993044;28;20196;-52
2022/01/26 04:39:28;;;;;;;79.68;30.25;;;;;;;;;;4992717;28;20161;-52
2022/01/26 04:42:00;;;;;;;75.53;29.65;;;;;;;;;;4993039;28;20193;-52
2022/01/26 04:44:31;;;;;;;78.55;30.50;;;;;;;;;;4993075;28;20645;-50
2022/01/26 04:46:57;;;;;;;90.05;30.08;;;;;;;;;;4993107;28;20175;-51
2022/01/26 04:49:23;;;;;;;84.43;34.07;;;;;;;;;;4992799;28;20173;-51
2022/01/26 04:51:49;;;;;;;87.22;33.30;;;;;;;;;;4992661;28;20515;-51
2022/01/26 04:54:15;;;;;;;91.82;33.88;;;;;;;;;;4992763;28;20313;-51
2022/01/26 04:56:42;;;;;;;93.05;31.65;;;;;;;;;;4992575;28;20697;-50
2022/01/26 04:59:08;;;;;;;114.07;38.80;;;;;;;;;;4992248;28;20177;-51
2022/01/26 05:01:34;;;;;;;93.65;35.78;;;;;;;;;;4991564;28;20264;-51
2022/01/26 05:04:00;;;;;;;120.80;37.70;;;;;;;;;;4992464;28;20316;-51
2022/01/26 05:06:26;;;;;;;102.07;34.22;;;;;;;;;;4992371;28;20404;-51
2022/01/26 05:08:51;;;;;;;95.63;37.33;;;;;;;;;;4992259;28;20172;-51
2022/01/26 05:11:53;;;;;;;107.23;37.00;;;;;;;;;;4992168;28;20602;-51
2022/01/26 05:14:10;;;;;;;99.38;35.95;;;;;;;;;;4989351;28;20420;-51
2022/01/26 05:16:36;;;;;;;101.28;32.72;;;;;;;;;;4992112;28;20193;-51
2022/01/26 05:19:04;;;;;;;103.38;33.90;;;;;;;;;;4992009;28;20248;-51
2022/01/26 05:21:30;;;;;;;102.97;37.50;;;;;;;;;;4992101;28;20181;-51
2022/01/26 05:23:56;;;;;;;118.82;38.05;;;;;;;;;;4992027;28;20196;-51
2022/01/26 05:26:22;;;;;;;113.40;39.20;;;;;;;;;;4992012;28;20613;-51
2022/01/26 05:28:48;;;;;;;101.17;36.47;;;;;;;;;;4991986;28;20409;-52
2022/01/26 05:31:15;;;;;;;120.68;40.42;;;;;;;;;;4991760;28;20432;-51
2022/01/26 05:33:41;;;;;;;111.28;39.88;;;;;;;;;;4990176;28;20202;-51
2022/01/26 05:36:07;;;;;;;132.23;38.70;;;;;;;;;;4991768;28;20173;-51
2022/01/26 05:38:33;;;;;;;126.15;39.20;;;;;;;;;;4991857;28;20165;-51
2022/01/26 05:41:01;;;;;;;138.33;40.50;;;;;;;;;;4991538;28;20192;-51
2022/01/26 05:43:28;;;;;;;132.50;44.90;;;;;;;;;;4991753;28;20411;-50
2022/01/26 05:45:58;;;;;;;135.75;41.00;;;;;;;;;;4991836;28;20235;-50
2022/01/26 05:48:24;;;;;;;124.68;40.92;;;;;;;;;;4991822;28;20172;-52
2022/01/26 05:50:53;;;;;;;134.53;41.10;;;;;;;;;;4991584;28;20177;-52
2022/01/26 05:53:21;;;;;;;126.85;39.83;;;;;;;;;;4991595;28;20405;-52
2022/01/26 05:55:51;;;;;;;116.22;38.47;;;;;;;;;;4991709;28;20165;-52
2022/01/26 05:58:17;;;;;;;124.97;44.13;;;;;;;;;;4991662;28;20207;-52
2022/01/26 06:00:43;;;;;;;112.53;38.95;;;;;;;;;;4991519;28;20196;-52
2022/01/26 06:03:09;;;;;;;134.13;41.17;;;;;;;;;;4989703;28;20660;-52
2022/01/26 06:05:35;;;;;;;128.80;40.25;;;;;;;;;;4991639;28;20396;-52
2022/01/26 06:08:01;;;;;;;129.50;42.80;;;;;;;;;;4991602;28;20183;-51
2022/01/26 06:10:27;;;;;;;130.90;43.87;;;;;;;;;;4991444;28;20414;-52
2022/01/26 06:12:53;;;;;;;127.47;38.23;;;;;;;;;;4991523;28;20453;-52
2022/01/26 06:15:20;;;;;;;118.70;39.67;;;;;;;;;;4992470;28;20411;-52
2022/01/26 06:17:46;;;;;;;131.43;40.17;;;;;;;;;;4991642;28;20540;-52
2022/01/26 06:20:12;;;;;;;137.73;39.97;;;;;;;;;;4991359;28;20259;-52
2022/01/26 06:22:38;;;;;;;127.72;40.85;;;;;;;;;;4991373;28;20427;-52
2022/01/26 06:25:06;;;;;;;118.07;39.55;;;;;;;;;;4994041;28;20172;-52
2022/01/26 06:27:33;;;;;;;124.47;38.95;;;;;;;;;;4995453;28;20173;-52
2022/01/26 06:29:59;;;;;;;123.32;39.13;;;;;;;;;;4995229;28;20664;-52
2022/01/26 06:32:25;;;;;;;121.43;37.95;;;;;;;;;;4994282;28;20204;-52
2022/01/26 06:34:51;;;;;;;118.13;41.13;;;;;;;;;;4995201;28;20169;-52
2022/01/26 06:37:18;;;;;;;130.57;42.03;;;;;;;;;;4995167;28;20451;-52
2022/01/26 06:39:44;;;;;;;132.88;42.25;;;;;;;;;;4995028;28;20192;-52
2022/01/26 06:42:14;;;;;;;127.95;38.35;;;;;;;;;;4995032;28;20197;-52
2022/01/26 06:49:53;;;;;;;125.30;37.90;;;;;;;;;;4995034;28;20761;-53
2022/01/26 06:52:20;;;;;;;113.18;37.92;;;;;;;;;;4994944;28;20283;-52
2022/01/26 06:54:46;;;;;;;114.65;36.72;;;;;;;;;;4994856;28;20180;-52
2022/01/26 06:57:12;;;;;;;121.57;40.35;;;;;;;;;;4994786;28;20205;-52
2022/01/26 06:59:38;;;;;;;124.60;40.73;;;;;;;;;;4994553;28;20196;-52
2022/01/26 07:02:04;;;;;;;115.93;38.57;;;;;;;;;;4993552;28;20454;-51
2022/01/26 07:04:30;;;;;;;149.48;43.13;;;;;;;;;;4994664;28;20968;-52
2022/01/26 07:06:56;;;;;;;135.13;40.77;;;;;;;;;;4994709;28;20260;-52
2022/01/26 07:09:22;;;;;;;128.82;37.35;;;;;;;;;;4994387;28;20413;-52
2022/01/26 07:11:48;;;;;;;110.72;36.95;;;;;;;;;;4994311;28;20212;-52
2022/01/26 07:14:26;;;;;;;128.50;38.63;;;;;;;;;;4994601;28;20176;-52
2022/01/26 07:19:50;;;;;;;128.80;40.10;;;;;;;;;;4994323;28;20684;-52
2022/01/26 07:22:16;;;;;;;120.10;38.28;;;;;;;;;;4994408;28;20335;-52
2022/01/26 07:24:43;;;;;;;122.73;38.70;;;;;;;;;;4994374;28;20664;-51
2022/01/26 07:27:10;;;;;;;116.45;37.70;;;;;;;;;;4994142;28;20787;-52
2022/01/26 07:29:36;;;;;;;128.70;39.25;;;;;;;;;;4994352;28;20543;-52
2022/01/26 07:32:05;;;;;;;123.53;37.00;;;;;;;;;;4994044;28;20263;-51
2022/01/26 07:34:31;;;;;;;116.63;37.30;;;;;;;;;;4992541;28;20432;-52
2022/01/26 07:37:02;;;;;;;123.97;39.00;;;;;;;;;;4993416;28;20543;-51
2022/01/26 07:39:40;;;;;;;108.03;34.70;;;;;;;;;;4993972;28;20400;-52
2022/01/26 07:42:06;;;;;;;116.18;39.28;;;;;;;;;;4992593;28;20185;-51
2022/01/26 07:44:32;;;;;;;123.10;36.80;;;;;;;;;;4987505;28;20187;-51
2022/01/26 07:46:58;;;;;;;124.03;38.80;;;;;;;;;;4989318;28;20184;-52
2022/01/26 07:49:24;;;;;;;113.23;36.77;;;;;;;;;;4988674;28;20435;-51
2022/01/26 07:51:51;;;;;;;132.63;38.57;;;;;;;;;;4993452;28;20934;-52
2022/01/26 07:54:18;;;;;;;113.72;35.58;;;;;;;;;;4993705;28;20432;-51
2022/01/26 07:56:45;;;;;;;116.07;38.95;;;;;;;;;;4993681;28;20276;-51
2022/01/26 07:59:12;;;;;;;123.00;37.67;;;;;;;;;;4993564;28;20183;-52
2022/01/26 08:01:37;;;;;;;139.07;37.50;;;;;;;;;;4993609;28;20711;-52
2022/01/26 08:04:04;;;;;;;131.03;37.70;;;;;;;;;;4993594;28;20169;-52
2022/01/26 08:06:30;;;;;;;113.05;36.55;;;;;;;;;;4993477;28;20507;-51
2022/01/26 08:08:56;;;;;;;115.55;37.15;;;;;;;;;;4993381;28;20184;-52
2022/01/26 08:11:24;;;;;;;110.67;34.70;;;;;;;;;;4993228;28;20205;-51
2022/01/26 08:13:50;;;;;;;103.97;35.58;;;;;;;;;;4993435;28;20401;-51
2022/01/26 08:16:16;;;;;;;120.83;36.80;;;;;;;;;;4993330;28;20540;-52
2022/01/26 08:18:42;;;;;;;127.63;38.93;;;;;;;;;;4993351;28;20423;-52
2022/01/26 08:21:08;;;;;;;124.30;35.37;;;;;;;;;;4990622;28;20432;-52
2022/01/26 08:23:36;;;;;;;114.80;34.77;;;;;;;;;;4993251;28;20431;-51
2022/01/26 08:26:02;;;;;;;112.68;34.10;;;;;;;;;;4993253;28;20402;-52
2022/01/26 08:28:35;;;;;;;97.73;33.00;;;;;;;;;;4992437;28;20188;-52
2022/01/26 08:31:01;;;;;;;116.75;37.60;;;;;;;;;;4992793;28;20434;-51
2022/01/26 08:33:27;;;;;;;119.73;38.10;;;;;;;;;;4993009;28;20204;-52
2022/01/26 08:35:52;;;;;;;128.80;40.83;;;;;;;;;;4992728;28;20411;-52
2022/01/26 08:38:19;;;;;;;124.90;41.40;;;;;;;;;;4992889;28;21015;-52
2022/01/26 08:40:46;;;;;;;143.57;41.28;;;;;;;;;;4992704;28;20491;-51
2022/01/26 08:43:13;;;;;;;131.18;40.17;;;;;;;;;;4992773;28;20211;-52
2022/01/26 08:45:39;;;;;;;147.88;41.42;;;;;;;;;;4992962;28;20242;-52
2022/01/26 08:48:05;;;;;;;141.13;42.10;;;;;;;;;;4992796;28;20165;-52
2022/01/26 08:50:31;;;;;;;115.63;38.30;;;;;;;;;;4991932;28;20180;-51
2022/01/26 08:52:57;;;;;;;137.30;40.47;;;;;;;;;;4992604;28;20201;-51
2022/01/26 08:55:23;;;;;;;120.53;35.50;;;;;;;;;;4992956;28;20660;-51
2022/01/26 08:57:49;;;;;;;125.80;37.73;;;;;;;;;;4992847;28;20456;-51
2022/01/26 09:00:19;;;;;;;110.73;36.80;;;;;;;;;;4992527;28;20843;-51
2022/01/26 09:02:46;;;;;;;117.88;38.83;;;;;;;;;;4992544;28;20946;-52
2022/01/26 09:05:12;;;;;;;118.10;36.40;;;;;;;;;;4992582;28;20172;-51
2022/01/26 09:07:42;;;;;;;123.88;37.53;;;;;;;;;;4992339;28;20169;-52
2022/01/26 09:10:08;;;;;;;120.88;34.60;;;;;;;;;;4992278;28;20179;-51
2022/01/26 09:12:37;;;;;;;112.93;34.08;;;;;;;;;;4990322;28;20204;-51
2022/01/26 09:15:05;;;;;;;124.45;34.90;;;;;;;;;;4992344;28;20195;-52
2022/01/26 09:17:33;;;;;;;118.07;35.47;;;;;;;;;;4992200;28;20614;-51
2022/01/26 09:20:00;;;;;;;123.20;34.28;;;;;;;;;;4991959;28;20773;-52
2022/01/26 09:22:27;;;;;;;133.20;38.78;;;;;;;;;;4992033;28;20193;-52
2022/01/26 09:24:53;;;;;;;124.70;33.67;;;;;;;;;;4992098;28;20303;-52
2022/01/26 09:27:19;;;;;;;118.57;34.13;;;;;;;;;;4992076;28;20248;-52
2022/01/26 09:29:45;;;;;;;112.03;34.50;;;;;;;;;;4991807;28;20888;-51
2022/01/26 09:32:12;;;;;;;122.18;35.10;;;;;;;;;;4991921;28;20912;-52
2022/01/26 09:34:39;;;;;;;110.72;32.35;;;;;;;;;;4991911;28;20200;-52
2022/01/26 09:37:10;;;;;;;121.85;35.22;;;;;;;;;;4991894;28;20676;-51
2022/01/26 09:39:38;;;;;;;108.85;31.17;;;;;;;;;;4991710;28;20170;-52
2022/01/26 09:42:04;;;;;;;128.63;34.00;;;;;;;;;;4991719;28;20192;-51
2022/01/26 09:44:33;;;;;;;124.00;36.80;;;;;;;;;;4991206;28;20180;-52
2022/01/26 09:46:59;;;;;;;117.45;32.85;;;;;;;;;;4991843;28;20172;-52
2022/01/26 09:49:32;;;;;;;109.95;36.20;;;;;;;;;;4991603;28;20165;-51
2022/01/26 09:51:59;;;;;;;107.95;32.15;;;;;;;;;;4991712;28;20197;-51
2022/01/26 09:54:30;;;;;;;104.55;31.40;;;;;;;;;;4991783;28;20632;-52
2022/01/26 09:57:00;;;;;;;137.48;40.35;;;;;;;;;;4987199;28;20664;-51
2022/01/26 09:59:26;;;;;;;110.95;32.65;;;;;;;;;;4989860;28;20176;-52
2022/01/26 10:01:52;;;;;;;138.47;35.30;;;;;;;;;;4991545;28;20216;-51
2022/01/26 10:04:20;;;;;;;109.27;32.37;;;;;;;;;;4991566;28;20393;-51
2022/01/26 10:06:49;;;;;;;115.15;34.70;;;;;;;;;;4991636;28;20408;-52
2022/01/26 10:17:44;;;;;;;126.28;36.58;;;;;;;;;;4991444;28;20203;-51
2022/01/26 10:20:14;;;;;;;122.50;37.53;;;;;;;;;;4990444;28;20539;-51
2022/01/26 10:22:41;;;;;;;131.85;32.50;;;;;;;;;;4991610;28;20196;-51
2022/01/26 10:25:09;;;;;;;136.07;36.67;;;;;;;;;;4991790;28;20184;-52
2022/01/26 10:27:40;;;;;;;110.35;33.55;;;;;;;;;;4990906;28;20288;-51
2022/01/26 10:30:07;;;;;;;131.95;37.53;;;;;;;;;;4990868;28;20181;-51
2022/01/26 10:32:36;;;;;;;124.82;38.45;;;;;;;;;;4991049;28;20247;-52
2022/01/26 10:35:05;;;;;;;116.38;35.22;;;;;;;;;;4991118;28;20249;-52
2022/01/26 10:37:32;;;;;;;140.25;37.80;;;;;;;;;;4990334;28;20271;-52
2022/01/26 10:40:13;;;;;;;132.27;37.25;;;;;;;;;;4990932;28;20161;-52
2022/01/26 10:42:39;;;;;;;126.25;37.15;;;;;;;;;;4990107;28;20181;-52
2022/01/26 10:45:13;;;;;;;129.85;34.00;;;;;;;;;;4988850;28;20177;-50
2022/01/26 10:47:45;;;;;;;106.05;33.13;;;;;;;;;;4991193;28;20180;-50
2022/01/26 10:53:07;;;;;;;120.55;36.08;;;;;;;;;;4991005;28;20196;-51
2022/01/26 10:55:34;;;;;;;127.65;38.97;;;;;;;;;;4991211;28;20173;-50
2022/01/26 10:58:02;;;;;;;130.13;38.20;;;;;;;;;;4991160;28;20603;-50
2022/01/26 11:00:28;;;;;;;109.65;35.60;;;;;;;;;;4991043;28;20544;-51
2022/01/26 11:02:57;;;;;;;128.88;36.20;;;;;;;;;;4990937;28;20185;-51
2022/01/26 11:05:23;;;;;;;111.15;36.53;;;;;;;;;;4989217;28;20263;-53
2022/01/26 11:07:50;;;;;;;113.45;35.58;;;;;;;;;;4990854;28;20326;-50
2022/01/26 11:10:17;;;;;;;114.78;37.72;;;;;;;;;;4990920;28;20169;-51
2022/01/26 11:12:44;;;;;;;107.32;35.30;;;;;;;;;;4993753;28;20305;-50
2022/01/26 11:15:10;;;;;;;121.22;35.17;;;;;;;;;;4994634;28;20169;-50
2022/01/26 11:17:38;;;;;;;125.25;39.78;;;;;;;;;;4994478;28;20227;-51
2022/01/26 11:20:21;;;;;;;124.63;35.95;;;;;;;;;;4995595;28;20259;-50
2022/01/26 11:22:54;;;;;;;113.93;36.35;;;;;;;;;;4993768;28;20189;-53
2022/01/26 11:25:21;;;;;;;137.68;38.38;;;;;;;;;;4994415;28;20173;-50
2022/01/26 11:27:47;;;;;;;118.72;35.97;;;;;;;;;;4994370;28;20181;-51
2022/01/26 11:30:30;;;;;;;117.67;34.87;;;;;;;;;;4992357;28;20803;-50
2022/01/26 11:33:01;;;;;;;114.07;33.40;;;;;;;;;;4994150;28;20462;-51
2022/01/26 11:35:28;;;;;;;118.40;32.40;;;;;;;;;;4994468;28;20179;-50
2022/01/26 11:38:04;;;;;;;115.10;32.60;;;;;;;;;;4994142;28;20224;-50
2022/01/26 11:46:09;;;;;;;120.72;36.88;;;;;;;;;;4992806;28;20219;-50
2022/01/26 11:48:36;;;;;;;111.05;33.17;;;;;;;;;;4993366;28;20173;-51
2022/01/26 11:51:03;;;;;;;132.48;35.85;;;;;;;;;;4992486;28;20529;-50
2022/01/26 11:53:29;;;;;;;111.20;35.28;;;;;;;;;;4991663;28;20232;-50
2022/01/26 11:56:04;;;;;;;117.25;35.95;;;;;;;;;;4983019;28;20204;-49
2022/01/26 11:58:32;;;;;;;101.72;34.13;;;;;;;;;;4990543;28;20202;-50
2022/01/26 12:01:22;;;;;;;103.57;31.35;;;;;;;;;;4990183;28;20173;-51
2022/01/26 12:04:00;;;;;;;104.95;34.33;;;;;;;;;;4993297;28;20169;-50
2022/01/26 12:06:29;;;;;;;104.75;32.67;;;;;;;;;;4993464;28;20160;-51
2022/01/26 12:08:58;;;;;;;100.45;32.70;;;;;;;;;;4993266;28;20222;-50
2022/01/26 12:11:25;;;;;;;108.40;33.10;;;;;;;;;;4993285;28;20200;-50
2022/01/26 12:13:58;;;;;;;104.05;32.45;;;;;;;;;;4993911;28;20170;-52
2022/01/26 12:16:32;;;;;;;102.85;30.65;;;;;;;;;;5002469;28;20223;-52
2022/01/26 12:19:11;;;;;;;114.75;33.42;;;;;;;;;;4982931;28;20164;-52
2022/01/26 12:38:18;;;;;;;104.97;28.88;;;;;;;;;;4987399;28;20220;-51
2022/01/26 12:43:38;;;;;;;100.85;32.88;;;;;;;;;;4975735;28;20228;-51
2022/01/26 12:46:08;;;;;;;98.93;31.17;;;;;;;;;;4980653;28;20797;-50
2022/01/26 12:48:37;;;;;;;101.22;30.27;;;;;;;;;;4992976;28;20177;-51
2022/01/26 12:51:06;;;;;;;95.80;31.67;;;;;;;;;;4991320;28;20720;-51
2022/01/26 12:53:34;;;;;;;103.68;28.95;;;;;;;;;;4992670;28;20172;-50
2022/01/26 12:56:01;;;;;;;99.55;29.88;;;;;;;;;;4999916;28;20535;-51
2022/01/26 12:58:29;;;;;;;95.63;31.30;;;;;;;;;;5001903;28;20205;-51
2022/01/26 13:00:59;;;;;;;103.95;30.45;;;;;;;;;;4998369;28;20179;-52
2022/01/26 13:03:28;;;;;;;84.38;27.15;;;;;;;;;;5001857;28;20176;-52
2022/01/26 13:06:04;;;;;;;93.70;28.90;;;;;;;;;;5001964;28;20169;-52
2022/01/26 13:08:39;;;;;;;93.60;31.85;;;;;;;;;;5001249;28;20248;-52
2022/01/26 13:11:05;;;;;;;90.20;27.30;;;;;;;;;;5000737;28;20175;-52
2022/01/26 13:13:33;;;;;;;94.27;29.50;;;;;;;;;;5001694;28;20614;-52
2022/01/26 13:16:09;;;;;;;87.70;29.48;;;;;;;;;;5001366;28;20409;-51
2022/01/26 13:23:47;;;;;;;90.90;27.33;;;;;;;;;;5000110;28;20180;-52
2022/01/26 13:26:30;;;;;;;90.05;28.20;;;;;;;;;;5000805;28;20168;-52
2022/01/26 13:29:20;;;;;;;84.20;24.90;;;;;;;;;;5000144;28;20164;-52
2022/01/26 13:35:07;;;;;;;87.80;28.88;;;;;;;;;;5000820;28;20582;-52
2022/01/26 13:40:37;;;;;;;96.22;27.42;;;;;;;;;;5000219;28;20184;-52
2022/01/26 13:46:24;;;;;;;97.47;26.58;;;;;;;;;;5001055;28;20280;-52
2022/01/26 13:51:41;;;;;;;88.50;27.40;;;;;;;;;;5001717;28;20691;-51
2022/01/26 13:54:29;;;;;;;68.03;23.45;;;;;;;;;;5001261;28;20586;-51
2022/01/26 13:59:32;;;;;;;73.68;25.10;;;;;;;;;;5000872;28;20191;-51
2022/01/26 14:01:59;;;;;;;85.68;25.38;;;;;;;;;;5000464;28;20203;-52
2022/01/26 14:04:25;;;;;;;79.15;24.95;;;;;;;;;;5000514;28;20157;-52
2022/01/26 14:06:51;;;;;;;75.57;26.45;;;;;;;;;;5001168;28;20169;-51
2022/01/26 14:09:17;;;;;;;84.23;26.80;;;;;;;;;;5000678;28;20236;-51
2022/01/26 14:11:46;;;;;;;78.22;26.73;;;;;;;;;;5001081;28;20446;-52
2022/01/26 14:14:19;;;;;;;80.60;27.30;;;;;;;;;;5001111;28;20169;-52
2022/01/26 14:16:55;;;;;;;77.72;26.00;;;;;;;;;;5000591;28;20192;-52
2022/01/26 14:19:50;;;;;;;72.95;24.92;;;;;;;;;;5000817;28;20168;-51
2022/01/26 14:22:35;;;;;;;69.72;25.40;;;;;;;;;;5000620;28;20712;-51
2022/01/26 14:25:34;;;;;;;63.78;22.60;;;;;;;;;;5000734;28;20185;-51
2022/01/26 14:27:57;;;;;;;70.97;24.02;;;;;;;;;;4999120;28;20208;-51
2022/01/26 14:31:23;;;;;;;73.90;23.90;;;;;;;;;;4998783;28;20177;-52
2022/01/26 14:33:34;;;;;;;69.32;21.48;;;;;;;;;;4992133;28;20255;-52
2022/01/26 15:00:56;;;;;;;59.55;22.17;;;;;;;;;;4962720;29;20233;-52
2022/01/26 15:35:25;;;;;;;68.13;22.13;;;;;;;;;;4983998;28;20181;-52
2022/01/26 15:43:36;;;;;;;69.85;22.67;;;;;;;;;;4983726;28;20196;-52
2022/01/26 15:52:12;;;;;;;61.10;22.85;;;;;;;;;;4983101;28;20204;-51
2022/01/26 16:27:55;;;;;;;73.55;25.23;;;;;;;;;;4965318;28;20228;-52
2022/01/26 16:38:46;;;;;;;66.00;23.80;;;;;;;;;;4976558;28;20209;-52
2022/01/26 17:34:31;;;;;;;78.00;25.30;;;;;;;;;;4997284;28;21263;-51
2022/01/26 17:47:33;;;;;;;71.30;23.70;;;;;;;;;;5000122;28;20188;-51
2022/01/26 18:15:17;;;;;;;67.95;23.95;;;;;;;;;;4999862;28;20188;-51
2022/01/26 18:49:30;;;;;;;77.93;27.00;;;;;;;;;;4995247;28;20272;-50
2022/01/26 18:51:57;;;;;;;70.40;26.27;;;;;;;;;;4995671;28;20575;-50
2022/01/26 18:54:33;;;;;;;74.30;27.45;;;;;;;;;;4993379;28;20187;-51
2022/01/26 18:57:00;;;;;;;72.55;25.67;;;;;;;;;;4994143;28;20680;-50
2022/01/26 18:59:26;;;;;;;86.13;28.75;;;;;;;;;;4994724;28;20231;-50
2022/01/26 19:01:53;;;;;;;90.72;26.52;;;;;;;;;;4994702;28;20195;-49
2022/01/26 19:04:26;;;;;;;82.15;26.95;;;;;;;;;;4994921;28;20165;-50
2022/01/26 19:06:53;;;;;;;75.70;24.77;;;;;;;;;;4994881;28;20261;-51
2022/01/26 19:09:23;;;;;;;81.53;25.08;;;;;;;;;;4994630;28;20166;-50
2022/01/26 19:11:49;;;;;;;76.63;25.25;;;;;;;;;;4994439;28;20204;-50
2022/01/26 19:14:15;;;;;;;89.20;28.63;;;;;;;;;;4994576;28;20194;-50
2022/01/26 19:16:48;;;;;;;83.05;27.40;;;;;;;;;;4994556;28;20179;-50
2022/01/26 19:27:08;;;;;;;78.40;26.90;;;;;;;;;;4991548;28;20490;-50
2022/01/26 19:51:20;;;;;;;78.68;23.20;;;;;;;;;;4994228;28;20251;-50
2022/01/26 19:53:46;;;;;;;80.45;26.45;;;;;;;;;;4993993;28;20165;-50
2022/01/26 19:56:12;;;;;;;74.70;27.43;;;;;;;;;;4994021;28;20177;-51
2022/01/26 19:58:38;;;;;;;65.47;23.33;;;;;;;;;;4993787;28;20502;-50
2022/01/26 20:01:05;;;;;;;72.73;25.00;;;;;;;;;;4992044;28;20440;-51
2022/01/26 20:03:34;;;;;;;76.68;25.75;;;;;;;;;;4993627;28;20416;-50
2022/01/26 20:06:00;;;;;;;81.28;26.02;;;;;;;;;;4993727;28;20579;-50
2022/01/26 20:08:38;;;;;;;70.03;26.05;;;;;;;;;;4993693;28;20204;-50
2022/01/26 20:11:09;;;;;;;76.20;23.55;;;;;;;;;;4993272;28;20168;-50
2022/01/26 20:13:43;;;;;;;72.13;25.50;;;;;;;;;;4993543;28;20165;-50
2022/01/26 20:16:10;;;;;;;75.30;27.50;;;;;;;;;;4993579;28;20169;-51
2022/01/26 20:18:37;;;;;;;75.00;25.70;;;;;;;;;;4993391;28;20246;-50
2022/01/26 20:21:03;;;;;;;70.88;26.15;;;;;;;;;;4993151;28;20725;-51
2022/01/26 20:23:33;;;;;;;75.88;27.60;;;;;;;;;;4993201;28;20168;-50
2022/01/26 20:26:01;;;;;;;70.07;23.48;;;;;;;;;;4991930;28;20268;-50
2022/01/26 20:28:28;;;;;;;66.15;25.00;;;;;;;;;;4993311;28;20169;-50
2022/01/26 20:30:55;;;;;;;67.03;23.42;;;;;;;;;;4992981;28;20173;-50
2022/01/26 20:33:21;;;;;;;74.32;28.17;;;;;;;;;;4992946;28;20193;-50
2022/01/26 20:35:47;;;;;;;80.60;26.20;;;;;;;;;;4992274;28;20392;-50
2022/01/26 20:38:14;;;;;;;62.50;23.90;;;;;;;;;;4993051;28;20605;-50
2022/01/26 20:40:40;;;;;;;64.88;22.70;;;;;;;;;;4992748;28;20173;-50
2022/01/26 20:43:06;;;;;;;64.07;26.70;;;;;;;;;;4992517;28;20240;-50
2022/01/26 20:45:32;;;;;;;71.03;26.48;;;;;;;;;;4992954;28;20169;-50
2022/01/26 20:48:00;;;;;;;64.85;25.83;;;;;;;;;;4992778;28;20176;-50
2022/01/26 20:50:27;;;;;;;68.53;26.00;;;;;;;;;;4992917;28;20173;-50
2022/01/26 20:52:53;;;;;;;72.97;26.10;;;;;;;;;;4991666;28;20188;-50
2022/01/26 20:55:20;;;;;;;68.70;25.05;;;;;;;;;;4992612;28;20204;-50
2022/01/26 20:57:46;;;;;;;75.57;24.70;;;;;;;;;;4990796;28;20204;-51
2022/01/26 21:00:14;;;;;;;67.40;23.63;;;;;;;;;;4992441;28;20169;-54